createdAt,value
2023-04-24T00:00:03.569Z,12.70
2023-04-24T00:01:03.045Z,12.70
2023-04-24T00:02:03.617Z,12.60
2023-04-24T00:03:02.740Z,12.60
2023-04-24T00:04:03.320Z,12.60
2023-04-24T00:05:02.962Z,12.60
2023-04-24T00:06:03.543Z,12.60
2023-04-24T00:07:03.581Z,12.60
2023-04-24T00:08:02.981Z,12.50
2023-04-24T00:09:02.611Z,12.50
2023-04-24T00:10:02.749Z,12.50
2023-04-24T00:11:03.354Z,12.50
2023-04-24T00:12:03.053Z,12.50
2023-04-24T00:13:03.503Z,12.50
2023-04-24T00:14:03.038Z,12.50
2023-04-24T00:15:03.476Z,12.50
2023-04-24T00:16:03.044Z,12.50
2023-04-24T00:17:02.824Z,12.50
2023-04-24T00:18:03.218Z,12.40
2023-04-24T00:19:03.164Z,12.40
2023-04-24T00:20:02.638Z,12.40
2023-04-24T00:21:02.717Z,12.40
2023-04-24T00:22:02.645Z,12.40
2023-04-24T00:23:03.603Z,12.40
2023-04-24T00:24:03.175Z,12.40
2023-04-24T00:25:03.073Z,12.40
2023-04-24T00:26:03.114Z,12.40
2023-04-24T00:27:02.981Z,12.40
2023-04-24T00:28:03.562Z,12.40
2023-04-24T00:29:03.040Z,12.40
2023-04-24T00:30:02.725Z,12.40
2023-04-24T00:31:03.597Z,12.40
2023-04-24T00:32:03.061Z,12.40
2023-04-24T00:33:02.972Z,12.40
2023-04-24T00:34:03.500Z,12.30
2023-04-24T00:35:03.524Z,12.30
2023-04-24T00:36:03.042Z,12.30
2023-04-24T00:37:03.452Z,12.30
2023-04-24T00:38:03.467Z,12.30
2023-04-24T00:39:03.273Z,12.30
2023-04-24T00:40:03.142Z,12.30
2023-04-24T00:41:03.569Z,12.30
2023-04-24T00:42:02.992Z,12.30
2023-04-24T00:43:03.421Z,12.30
2023-04-24T00:44:03.099Z,12.20
2023-04-24T00:45:03.578Z,12.20
2023-04-24T00:46:03.116Z,12.20
2023-04-24T00:47:03.033Z,12.20
2023-04-24T00:48:03.032Z,12.20
2023-04-24T00:49:03.402Z,12.20
2023-04-24T00:50:03.044Z,12.20
2023-04-24T00:51:03.052Z,12.20
2023-04-24T00:52:03.410Z,12.20
2023-04-24T00:53:03.308Z,12.20
2023-04-24T00:54:02.772Z,12.20
2023-04-24T00:55:03.148Z,12.20
2023-04-24T00:56:03.593Z,12.20
2023-04-24T00:57:03.034Z,12.20
2023-04-24T00:58:03.395Z,12.20
2023-04-24T00:59:02.860Z,12.20
2023-04-24T01:00:02.694Z,12.20
2023-04-24T01:01:03.192Z,12.20
2023-04-24T01:02:02.627Z,12.20
2023-04-24T01:03:03.159Z,12.20
2023-04-24T01:04:02.986Z,12.20
2023-04-24T01:05:02.749Z,12.20
2023-04-24T01:06:03.149Z,12.20
2023-04-24T01:07:03.042Z,12.20
2023-04-24T01:08:02.895Z,12.20
2023-04-24T01:09:02.847Z,12.20
2023-04-24T01:10:03.324Z,12.20
2023-04-24T01:11:02.823Z,12.20
2023-04-24T01:12:03.199Z,12.20
2023-04-24T01:13:02.648Z,12.20
2023-04-24T01:14:03.206Z,12.20
2023-04-24T01:15:03.580Z,12.20
2023-04-24T01:16:03.421Z,12.20
2023-04-24T01:17:02.933Z,12.10
2023-04-24T01:18:02.921Z,12.10
2023-04-24T01:19:03.238Z,12.10
2023-04-24T01:20:02.851Z,12.10
2023-04-24T01:21:02.635Z,12.10
2023-04-24T01:22:03.041Z,12.10
2023-04-24T01:23:03.466Z,12.10
2023-04-24T01:24:03.011Z,12.10
2023-04-24T01:25:03.402Z,12.10
2023-04-24T01:26:02.902Z,12.10
2023-04-24T01:27:03.412Z,12.10
2023-04-24T01:28:02.841Z,12.10
2023-04-24T01:29:02.749Z,12.10
2023-04-24T01:30:03.152Z,12.10
2023-04-24T01:31:03.670Z,12.10
2023-04-24T01:32:03.220Z,12.00
2023-04-24T01:33:03.618Z,12.00
2023-04-24T01:34:03.337Z,12.10
2023-04-24T01:35:03.221Z,12.00
2023-04-24T01:36:03.352Z,12.00
2023-04-24T01:37:02.700Z,12.00
2023-04-24T01:38:02.670Z,12.00
2023-04-24T01:39:03.027Z,12.00
2023-04-24T01:40:02.983Z,12.00
2023-04-24T01:41:03.432Z,12.00
2023-04-24T01:42:03.340Z,12.00
2023-04-24T01:43:03.118Z,12.00
2023-04-24T01:44:03.610Z,12.00
2023-04-24T01:45:03.425Z,12.00
2023-04-24T01:46:03.255Z,11.90
2023-04-24T01:47:03.651Z,11.90
2023-04-24T01:48:03.189Z,11.90
2023-04-24T01:49:03.063Z,11.90
2023-04-24T01:50:03.035Z,11.90
2023-04-24T01:51:02.836Z,11.90
2023-04-24T01:52:02.697Z,11.90
2023-04-24T01:53:03.207Z,11.90
2023-04-24T01:54:03.667Z,11.90
2023-04-24T01:55:03.560Z,11.90
2023-04-24T01:56:03.388Z,11.90
2023-04-24T01:57:03.248Z,11.90
2023-04-24T01:58:02.656Z,11.90
2023-04-24T01:59:03.557Z,11.90
2023-04-24T02:00:03.093Z,11.90
2023-04-24T02:01:03.504Z,11.90
2023-04-24T02:02:03.426Z,11.90
2023-04-24T02:03:03.787Z,11.90
2023-04-24T02:04:03.308Z,11.80
2023-04-24T02:05:02.700Z,11.90
2023-04-24T02:06:03.588Z,11.90
2023-04-24T02:07:03.482Z,11.80
2023-04-24T02:08:03.301Z,11.80
2023-04-24T02:09:03.051Z,11.80
2023-04-24T02:10:03.425Z,11.80
2023-04-24T02:11:02.883Z,11.80
2023-04-24T02:12:03.290Z,11.80
2023-04-24T02:13:02.837Z,11.80
2023-04-24T02:14:03.301Z,11.80
2023-04-24T02:15:02.810Z,11.80
2023-04-24T02:16:02.728Z,11.80
2023-04-24T02:17:02.785Z,11.80
2023-04-24T02:18:03.340Z,11.80
2023-04-24T02:19:02.764Z,11.80
2023-04-24T02:20:03.145Z,11.80
2023-04-24T02:21:02.967Z,11.80
2023-04-24T02:22:03.409Z,11.80
2023-04-24T02:23:02.801Z,11.80
2023-04-24T02:24:03.188Z,11.80
2023-04-24T02:25:02.742Z,11.80
2023-04-24T02:26:03.484Z,11.80
2023-04-24T02:27:02.813Z,11.80
2023-04-24T02:28:02.601Z,11.80
2023-04-24T02:29:03.051Z,11.80
2023-04-24T02:30:02.977Z,11.80
2023-04-24T02:31:02.725Z,11.80
2023-04-24T02:32:03.147Z,11.80
2023-04-24T02:33:02.817Z,11.80
2023-04-24T02:34:03.237Z,11.80
2023-04-24T02:35:02.757Z,11.80
2023-04-24T02:36:03.131Z,11.70
2023-04-24T02:37:03.487Z,11.70
2023-04-24T02:38:03.008Z,11.80
2023-04-24T02:39:02.762Z,11.80
2023-04-24T02:40:03.118Z,11.70
2023-04-24T02:41:03.462Z,11.70
2023-04-24T02:42:03.302Z,11.70
2023-04-24T02:43:02.872Z,11.70
2023-04-24T02:44:03.236Z,11.70
2023-04-24T02:45:02.702Z,11.70
2023-04-24T02:46:03.626Z,11.70
2023-04-24T02:47:02.730Z,11.70
2023-04-24T02:48:03.139Z,11.70
2023-04-24T02:49:02.711Z,11.70
2023-04-24T02:50:03.099Z,11.70
2023-04-24T02:51:03.078Z,11.70
2023-04-24T02:52:02.917Z,11.70
2023-04-24T02:53:03.467Z,11.70
2023-04-24T02:54:03.247Z,11.70
2023-04-24T02:55:02.639Z,11.70
2023-04-24T02:56:03.602Z,11.70
2023-04-24T02:57:03.009Z,11.70
2023-04-24T02:58:03.011Z,11.60
2023-04-24T02:59:03.431Z,11.70
2023-04-24T03:00:03.372Z,11.60
2023-04-24T03:01:03.247Z,11.60
2023-04-24T03:02:03.266Z,11.60
2023-04-24T03:03:02.829Z,11.60
2023-04-24T03:04:03.238Z,11.60
2023-04-24T03:05:02.690Z,11.60
2023-04-24T03:06:03.291Z,11.60
2023-04-24T03:07:02.855Z,11.60
2023-04-24T03:08:03.328Z,11.60
2023-04-24T03:09:03.200Z,11.60
2023-04-24T03:10:03.120Z,11.60
2023-04-24T03:11:03.509Z,11.70
2023-04-24T03:12:03.149Z,11.70
2023-04-24T03:13:02.667Z,11.70
2023-04-24T03:14:03.525Z,11.70
2023-04-24T03:15:03.007Z,11.70
2023-04-24T03:16:02.769Z,11.60
2023-04-24T03:17:02.935Z,11.70
2023-04-24T03:18:03.392Z,11.60
2023-04-24T03:19:03.542Z,11.60
2023-04-24T03:20:02.861Z,11.60
2023-04-24T03:21:03.327Z,11.60
2023-04-24T03:22:03.172Z,11.60
2023-04-24T03:23:02.996Z,11.60
2023-04-24T03:24:03.389Z,11.60
2023-04-24T03:25:02.776Z,11.60
2023-04-24T03:26:03.165Z,11.60
2023-04-24T03:27:02.683Z,11.60
2023-04-24T03:28:03.538Z,11.60
2023-04-24T03:29:03.021Z,11.60
2023-04-24T03:30:03.544Z,11.60
2023-04-24T03:31:02.940Z,11.60
2023-04-24T03:32:02.886Z,11.60
2023-04-24T03:33:02.871Z,11.60
2023-04-24T03:34:03.636Z,11.50
2023-04-24T03:35:03.057Z,11.50
2023-04-24T03:36:02.866Z,11.50
2023-04-24T03:37:02.674Z,11.50
2023-04-24T03:38:03.131Z,11.50
2023-04-24T03:39:03.099Z,11.50
2023-04-24T03:40:03.537Z,11.50
2023-04-24T03:41:02.973Z,11.50
2023-04-24T03:42:02.864Z,11.50
2023-04-24T03:43:03.379Z,11.50
2023-04-24T03:44:02.905Z,11.50
2023-04-24T03:45:03.316Z,11.50
2023-04-24T03:46:02.832Z,11.50
2023-04-24T03:47:03.487Z,11.50
2023-04-24T03:48:03.302Z,11.50
2023-04-24T03:49:03.100Z,11.50
2023-04-24T03:50:03.637Z,11.50
2023-04-24T03:51:03.004Z,11.50
2023-04-24T03:52:02.983Z,11.50
2023-04-24T03:53:03.370Z,11.50
2023-04-24T03:54:03.338Z,11.50
2023-04-24T03:55:02.769Z,11.50
2023-04-24T03:56:03.172Z,11.50
2023-04-24T03:57:03.012Z,11.50
2023-04-24T03:58:02.802Z,11.50
2023-04-24T03:59:03.270Z,11.50
2023-04-24T04:00:02.725Z,11.50
2023-04-24T04:01:02.620Z,11.40
2023-04-24T04:02:03.112Z,11.50
2023-04-24T04:03:02.814Z,11.40
2023-04-24T04:04:02.904Z,11.50
2023-04-24T04:05:02.728Z,11.40
2023-04-24T04:06:03.535Z,11.40
2023-04-24T04:07:03.508Z,11.40
2023-04-24T04:08:03.030Z,11.40
2023-04-24T04:09:03.331Z,11.40
2023-04-24T04:10:03.281Z,11.40
2023-04-24T04:11:04.681Z,11.40
2023-04-24T04:12:03.415Z,11.40
2023-04-24T04:13:03.400Z,11.40
2023-04-24T04:14:02.793Z,11.40
2023-04-24T04:15:03.580Z,11.40
2023-04-24T04:16:03.572Z,11.40
2023-04-24T04:17:02.750Z,11.40
2023-04-24T04:18:03.736Z,11.40
2023-04-24T04:19:03.112Z,11.40
2023-04-24T04:20:03.229Z,11.40
2023-04-24T04:21:03.572Z,11.40
2023-04-24T04:22:03.095Z,11.40
2023-04-24T04:23:03.537Z,11.40
2023-04-24T04:24:02.961Z,11.40
2023-04-24T04:25:03.080Z,11.40
2023-04-24T04:26:03.557Z,11.40
2023-04-24T04:27:02.970Z,11.40
2023-04-24T04:28:03.362Z,11.40
2023-04-24T04:29:03.068Z,11.40
2023-04-24T04:30:03.553Z,11.40
2023-04-24T04:31:03.417Z,11.40
2023-04-24T04:32:02.977Z,11.40
2023-04-24T04:33:03.250Z,11.40
2023-04-24T04:34:02.665Z,11.40
2023-04-24T04:35:03.152Z,11.30
2023-04-24T04:36:03.662Z,11.40
2023-04-24T04:37:03.548Z,11.30
2023-04-24T04:38:03.502Z,11.30
2023-04-24T04:39:02.983Z,11.30
2023-04-24T04:40:03.405Z,11.30
2023-04-24T04:41:02.920Z,11.30
2023-04-24T04:42:02.786Z,11.30
2023-04-24T04:43:03.190Z,11.40
2023-04-24T04:44:03.109Z,11.30
2023-04-24T04:45:02.995Z,11.40
2023-04-24T04:46:03.616Z,11.40
2023-04-24T04:47:02.764Z,11.40
2023-04-24T04:48:02.756Z,11.40
2023-04-24T04:49:03.520Z,11.40
2023-04-24T04:50:03.362Z,11.40
2023-04-24T04:51:02.957Z,11.40
2023-04-24T04:52:03.361Z,11.40
2023-04-24T04:53:03.001Z,11.40
2023-04-24T04:54:03.525Z,11.40
2023-04-24T04:55:03.329Z,11.40
2023-04-24T04:56:02.780Z,11.40
2023-04-24T04:57:04.363Z,11.50
2023-04-24T04:58:03.392Z,11.50
2023-04-24T04:59:02.883Z,11.50
2023-04-24T05:00:02.749Z,11.50
2023-04-24T05:01:03.181Z,11.50
2023-04-24T05:02:03.051Z,11.50
2023-04-24T05:03:13.033Z,11.50
2023-04-24T05:04:02.965Z,11.50
2023-04-24T05:05:03.537Z,11.50
2023-04-24T05:06:03.142Z,11.50
2023-04-24T05:07:03.544Z,11.50
2023-04-24T05:08:04.439Z,11.60
2023-04-24T05:09:03.389Z,11.60
2023-04-24T05:10:02.921Z,11.60
2023-04-24T05:11:02.907Z,11.60
2023-04-24T05:12:02.761Z,11.60
2023-04-24T05:13:03.523Z,11.60
2023-04-24T05:14:03.068Z,11.60
2023-04-24T05:15:03.628Z,11.60
2023-04-24T05:16:04.636Z,11.60
2023-04-24T05:17:03.580Z,11.60
2023-04-24T05:18:02.887Z,11.60
2023-04-24T05:19:03.517Z,11.60
2023-04-24T05:20:03.547Z,11.70
2023-04-24T05:21:02.991Z,11.70
2023-04-24T05:22:02.917Z,11.70
2023-04-24T05:23:03.379Z,11.70
2023-04-24T05:24:02.917Z,11.70
2023-04-24T05:25:03.256Z,11.70
2023-04-24T05:26:03.506Z,11.70
2023-04-24T05:27:03.060Z,11.70
2023-04-24T05:28:02.990Z,11.70
2023-04-24T05:29:03.490Z,11.70
2023-04-24T05:30:03.181Z,11.80
2023-04-24T05:31:03.206Z,11.70
2023-04-24T05:32:02.809Z,11.70
2023-04-24T05:33:02.734Z,11.80
2023-04-24T05:34:03.102Z,11.80
2023-04-24T05:35:02.670Z,11.80
2023-04-24T05:36:03.041Z,11.80
2023-04-24T05:37:03.548Z,11.80
2023-04-24T05:38:03.383Z,11.80
2023-04-24T05:39:02.959Z,11.80
2023-04-24T05:40:03.390Z,11.80
2023-04-24T05:41:02.880Z,11.80
2023-04-24T05:42:03.362Z,11.80
2023-04-24T05:43:03.030Z,11.80
2023-04-24T05:44:02.917Z,11.80
2023-04-24T05:45:03.414Z,11.80
2023-04-24T05:46:03.468Z,11.80
2023-04-24T05:47:02.682Z,11.80
2023-04-24T05:48:03.303Z,11.80
2023-04-24T05:49:02.951Z,11.80
2023-04-24T05:50:02.810Z,11.80
2023-04-24T05:51:03.209Z,11.80
2023-04-24T05:52:02.816Z,11.80
2023-04-24T05:53:03.230Z,11.80
2023-04-24T05:54:02.989Z,11.80
2023-04-24T05:55:03.417Z,11.80
2023-04-24T05:56:03.318Z,11.80
2023-04-24T05:57:03.362Z,11.90
2023-04-24T05:58:03.563Z,11.90
2023-04-24T05:59:03.317Z,11.90
2023-04-24T06:00:03.252Z,11.90
2023-04-24T06:01:02.786Z,12.00
2023-04-24T06:02:02.949Z,12.00
2023-04-24T06:03:03.570Z,12.00
2023-04-24T06:04:02.984Z,12.10
2023-04-24T06:05:03.655Z,12.10
2023-04-24T06:06:03.336Z,12.10
2023-04-24T06:07:02.846Z,12.20
2023-04-24T06:08:03.333Z,12.20
2023-04-24T06:09:03.184Z,12.30
2023-04-24T06:10:02.758Z,12.30
2023-04-24T06:11:04.449Z,12.30
2023-04-24T06:12:03.241Z,12.40
2023-04-24T06:13:02.734Z,12.40
2023-04-24T06:14:03.225Z,12.40
2023-04-24T06:15:02.825Z,12.40
2023-04-24T06:16:03.357Z,12.40
2023-04-24T06:17:02.947Z,12.40
2023-04-24T06:18:02.871Z,12.40
2023-04-24T06:19:03.518Z,12.40
2023-04-24T06:20:03.412Z,12.40
2023-04-24T06:21:02.893Z,12.40
2023-04-24T06:22:03.825Z,12.40
2023-04-24T06:23:03.376Z,12.40
2023-04-24T06:24:03.380Z,12.40
2023-04-24T06:25:02.705Z,12.40
2023-04-24T06:26:03.483Z,12.40
2023-04-24T06:27:03.152Z,12.40
2023-04-24T06:28:03.155Z,12.40
2023-04-24T06:29:03.127Z,12.40
2023-04-24T06:30:02.965Z,12.40
2023-04-24T06:31:03.540Z,12.40
2023-04-24T06:32:03.095Z,12.40
2023-04-24T06:33:13.304Z,12.40
2023-04-24T06:34:03.472Z,12.40
2023-04-24T06:35:02.894Z,12.50
2023-04-24T06:36:03.361Z,12.50
2023-04-24T06:37:03.418Z,12.60
2023-04-24T06:38:03.186Z,12.70
2023-04-24T06:39:03.149Z,12.70
2023-04-24T06:40:02.789Z,12.80
2023-04-24T06:41:03.228Z,12.90
2023-04-24T06:42:02.622Z,12.90
2023-04-24T06:43:03.098Z,13.00
2023-04-24T06:44:03.637Z,13.10
2023-04-24T06:45:03.596Z,13.10
2023-04-24T06:46:03.593Z,13.20
2023-04-24T06:47:03.019Z,13.30
2023-04-24T06:48:02.751Z,13.30
2023-04-24T06:49:03.133Z,13.30
2023-04-24T06:50:02.666Z,13.30
2023-04-24T06:51:03.105Z,13.30
2023-04-24T06:52:03.640Z,13.30
2023-04-24T06:53:02.927Z,13.30
2023-04-24T06:54:02.934Z,13.30
2023-04-24T06:55:03.410Z,13.30
2023-04-24T06:56:02.815Z,13.30
2023-04-24T06:57:03.343Z,13.30
2023-04-24T06:58:02.913Z,13.20
2023-04-24T06:59:03.644Z,13.20
2023-04-24T07:00:03.482Z,13.20
2023-04-24T07:01:03.125Z,13.20
2023-04-24T07:02:02.669Z,13.20
2023-04-24T07:03:03.325Z,13.20
2023-04-24T07:04:03.680Z,13.20
2023-04-24T07:05:03.173Z,13.20
2023-04-24T07:06:03.610Z,13.20
2023-04-24T07:07:02.996Z,13.20
2023-04-24T07:08:03.025Z,13.20
2023-04-24T07:09:03.531Z,13.30
2023-04-24T07:10:02.989Z,13.30
2023-04-24T07:11:03.671Z,13.40
2023-04-24T07:12:03.159Z,13.40
2023-04-24T07:13:03.732Z,13.40
2023-04-24T07:14:03.414Z,13.50
2023-04-24T07:15:02.930Z,13.50
2023-04-24T07:16:03.020Z,13.60
2023-04-24T07:17:03.646Z,13.60
2023-04-24T07:18:05.552Z,13.60
2023-04-24T07:19:02.777Z,13.70
2023-04-24T07:20:02.711Z,13.70
2023-04-24T07:21:03.101Z,13.70
2023-04-24T07:22:03.529Z,13.70
2023-04-24T07:23:02.859Z,13.70
2023-04-24T07:24:03.279Z,13.70
2023-04-24T07:25:02.813Z,13.70
2023-04-24T07:26:02.738Z,13.70
2023-04-24T07:27:02.987Z,13.80
2023-04-24T07:28:03.314Z,13.80
2023-04-24T07:29:02.972Z,13.80
2023-04-24T07:30:03.302Z,13.90
2023-04-24T07:31:02.769Z,13.90
2023-04-24T07:32:04.294Z,13.90
2023-04-24T07:33:03.527Z,13.90
2023-04-24T07:34:02.722Z,13.90
2023-04-24T07:35:03.588Z,13.90
2023-04-24T07:36:03.492Z,13.90
2023-04-24T07:37:03.629Z,13.90
2023-04-24T07:38:02.987Z,13.90
2023-04-24T07:39:03.009Z,13.90
2023-04-24T07:40:02.981Z,13.90
2023-04-24T07:41:03.594Z,13.90
2023-04-24T07:42:02.993Z,14.00
2023-04-24T07:43:02.977Z,14.00
2023-04-24T07:44:03.395Z,14.00
2023-04-24T07:45:03.116Z,14.00
2023-04-24T07:46:03.620Z,14.00
2023-04-24T07:47:03.217Z,14.00
2023-04-24T07:48:03.126Z,14.00
2023-04-24T07:49:12.815Z,14.00
2023-04-24T07:50:02.852Z,14.10
2023-04-24T07:51:03.342Z,14.10
2023-04-24T07:52:02.884Z,14.10
2023-04-24T07:53:03.440Z,14.20
2023-04-24T07:54:02.951Z,14.20
2023-04-24T07:55:03.400Z,14.20
2023-04-24T07:56:03.150Z,14.20
2023-04-24T07:57:03.117Z,14.20
2023-04-24T07:58:03.600Z,14.20
2023-04-24T07:59:03.015Z,14.30
2023-04-24T08:00:03.513Z,14.30
2023-04-24T08:01:03.059Z,14.30
2023-04-24T08:02:03.593Z,14.30
2023-04-24T08:03:03.461Z,14.30
2023-04-24T08:04:03.621Z,14.40
2023-04-24T08:05:03.201Z,14.40
2023-04-24T08:06:03.016Z,14.40
2023-04-24T08:07:03.622Z,14.40
2023-04-24T08:08:03.601Z,14.50
2023-04-24T08:09:03.174Z,14.50
2023-04-24T08:10:02.776Z,14.50
2023-04-24T08:11:03.225Z,14.50
2023-04-24T08:12:02.663Z,14.50
2023-04-24T08:13:02.747Z,14.50
2023-04-24T08:14:03.211Z,14.50
2023-04-24T08:15:02.704Z,14.50
2023-04-24T08:16:03.192Z,14.40
2023-04-24T08:17:03.250Z,14.40
2023-04-24T08:18:02.688Z,14.40
2023-04-24T08:19:03.291Z,14.40
2023-04-24T08:20:02.800Z,14.30
2023-04-24T08:21:03.381Z,14.30
2023-04-24T08:22:02.864Z,14.30
2023-04-24T08:23:02.827Z,14.30
2023-04-24T08:24:03.551Z,14.20
2023-04-24T08:25:03.083Z,14.20
2023-04-24T08:26:03.490Z,14.10
2023-04-24T08:27:02.944Z,14.10
2023-04-24T08:28:03.534Z,14.10
2023-04-24T08:29:03.337Z,14.10
2023-04-24T08:30:03.253Z,14.10
2023-04-24T08:31:02.794Z,14.10
2023-04-24T08:32:02.850Z,14.10
2023-04-24T08:33:03.367Z,14.10
2023-04-24T08:34:03.014Z,14.20
2023-04-24T08:35:03.503Z,14.20
2023-04-24T08:36:03.494Z,14.30
2023-04-24T08:37:03.012Z,14.40
2023-04-24T08:38:03.396Z,14.50
2023-04-24T08:39:03.303Z,14.50
2023-04-24T08:40:03.280Z,14.60
2023-04-24T08:41:03.186Z,14.60
2023-04-24T08:42:02.804Z,14.70
2023-04-24T08:43:03.383Z,14.70
2023-04-24T08:44:03.308Z,14.70
2023-04-24T08:45:03.205Z,14.70
2023-04-24T08:47:03.337Z,14.80
2023-04-24T08:48:03.322Z,14.80
2023-04-24T08:49:03.414Z,14.80
2023-04-24T08:50:02.805Z,14.80
2023-04-24T08:51:02.678Z,14.90
2023-04-24T08:52:03.105Z,14.90
2023-04-24T08:53:05.032Z,14.90
2023-04-24T08:54:03.216Z,15.00
2023-04-24T08:55:03.198Z,15.00
2023-04-24T08:56:02.696Z,15.00
2023-04-24T08:57:03.069Z,15.00
2023-04-24T08:58:02.864Z,15.00
2023-04-24T08:59:03.332Z,15.10
2023-04-24T09:00:02.799Z,15.10
2023-04-24T09:01:03.202Z,15.10
2023-04-24T09:02:02.816Z,15.10
2023-04-24T09:03:03.600Z,15.10
2023-04-24T09:04:03.107Z,15.10
2023-04-24T09:05:02.981Z,15.10
2023-04-24T09:06:02.966Z,15.20
2023-04-24T09:07:03.364Z,15.20
2023-04-24T09:08:03.174Z,15.10
2023-04-24T09:09:02.690Z,15.10
2023-04-24T09:10:03.126Z,15.10
2023-04-24T09:11:02.973Z,15.10
2023-04-24T09:12:03.462Z,15.10
2023-04-24T09:13:02.859Z,15.10
2023-04-24T09:14:03.476Z,15.00
2023-04-24T09:15:03.029Z,15.00
2023-04-24T09:16:02.895Z,15.00
2023-04-24T09:17:03.057Z,15.00
2023-04-24T09:18:03.532Z,15.00
2023-04-24T09:19:03.069Z,14.90
2023-04-24T09:20:03.472Z,14.90
2023-04-24T09:21:03.224Z,14.90
2023-04-24T09:22:03.635Z,14.90
2023-04-24T09:23:03.052Z,14.80
2023-04-24T09:24:03.511Z,14.80
2023-04-24T09:25:02.981Z,14.70
2023-04-24T09:26:03.553Z,14.70
2023-04-24T09:27:03.137Z,14.70
2023-04-24T09:28:03.630Z,14.60
2023-04-24T09:29:03.335Z,14.60
2023-04-24T09:30:02.701Z,14.60
2023-04-24T09:31:03.417Z,14.70
2023-04-24T09:32:03.107Z,14.70
2023-04-24T09:33:03.074Z,14.70
2023-04-24T09:34:03.627Z,14.70
2023-04-24T09:35:03.166Z,14.70
2023-04-24T09:36:02.738Z,14.70
2023-04-24T09:37:03.151Z,14.80
2023-04-24T09:38:03.178Z,14.80
2023-04-24T09:39:02.719Z,14.80
2023-04-24T09:40:03.315Z,14.90
2023-04-24T09:41:02.759Z,14.90
2023-04-24T09:42:02.695Z,14.90
2023-04-24T09:43:02.718Z,14.90
2023-04-24T09:44:03.603Z,14.90
2023-04-24T09:46:03.521Z,14.80
2023-04-24T09:47:02.979Z,14.80
2023-04-24T09:48:02.914Z,14.80
2023-04-24T09:49:03.345Z,14.80
2023-04-24T09:50:03.348Z,14.80
2023-04-24T09:51:03.286Z,14.80
2023-04-24T09:52:02.878Z,14.70
2023-04-24T09:53:03.359Z,14.70
2023-04-24T09:54:02.725Z,14.70
2023-04-24T09:55:03.393Z,14.70
2023-04-24T09:56:02.785Z,14.70
2023-04-24T09:57:03.292Z,14.60
2023-04-24T09:58:02.917Z,14.60
2023-04-24T09:59:03.394Z,14.60
2023-04-24T10:00:02.808Z,14.60
2023-04-24T10:01:03.330Z,14.60
2023-04-24T10:02:03.068Z,14.60
2023-04-24T10:03:02.708Z,14.60
2023-04-24T10:04:03.552Z,14.60
2023-04-24T10:05:03.250Z,14.60
2023-04-24T10:06:02.934Z,14.70
2023-04-24T10:07:02.820Z,14.70
2023-04-24T10:08:02.711Z,14.70
2023-04-24T10:09:03.616Z,14.80
2023-04-24T10:10:03.164Z,14.80
2023-04-24T10:11:03.065Z,14.80
2023-04-24T10:12:02.983Z,14.80
2023-04-24T10:13:03.590Z,14.80
2023-04-24T10:14:03.194Z,14.80
2023-04-24T10:15:03.323Z,14.90
2023-04-24T10:16:03.229Z,14.90
2023-04-24T10:17:02.858Z,14.90
2023-04-24T10:18:03.309Z,14.90
2023-04-24T10:19:02.935Z,14.90
2023-04-24T10:20:02.930Z,14.80
2023-04-24T10:21:03.456Z,14.80
2023-04-24T10:22:03.401Z,14.80
2023-04-24T10:23:03.334Z,14.80
2023-04-24T10:24:02.917Z,14.80
2023-04-24T10:25:02.761Z,14.80
2023-04-24T10:26:03.219Z,14.80
2023-04-24T10:27:02.795Z,14.90
2023-04-24T10:28:03.164Z,14.90
2023-04-24T10:29:02.653Z,14.90
2023-04-24T10:30:03.021Z,15.00
2023-04-24T10:31:03.119Z,15.10
2023-04-24T10:32:03.067Z,15.20
2023-04-24T10:33:02.976Z,15.30
2023-04-24T10:34:03.489Z,15.40
2023-04-24T10:35:03.033Z,15.40
2023-04-24T10:36:03.062Z,15.50
2023-04-24T10:37:03.130Z,15.60
2023-04-24T10:38:03.565Z,15.60
2023-04-24T10:39:03.588Z,15.70
2023-04-24T10:40:03.556Z,15.70
2023-04-24T10:41:03.117Z,15.80
2023-04-24T10:42:03.078Z,15.80
2023-04-24T10:43:03.566Z,15.80
2023-04-24T10:44:03.506Z,15.80
2023-04-24T10:45:02.910Z,15.80
2023-04-24T10:46:02.931Z,15.80
2023-04-24T10:47:03.390Z,15.80
2023-04-24T10:48:04.281Z,15.70
2023-04-24T10:49:02.941Z,15.70
2023-04-24T10:50:03.486Z,15.60
2023-04-24T10:51:02.896Z,15.50
2023-04-24T10:52:02.735Z,15.50
2023-04-24T10:53:03.297Z,15.40
2023-04-24T10:54:02.798Z,15.30
2023-04-24T10:55:02.760Z,15.30
2023-04-24T10:56:02.734Z,15.30
2023-04-24T10:57:03.216Z,15.20
2023-04-24T10:58:02.728Z,15.20
2023-04-24T10:59:03.156Z,15.20
2023-04-24T11:00:04.982Z,15.20
2023-04-24T11:01:02.949Z,15.10
2023-04-24T11:02:03.482Z,15.20
2023-04-24T11:03:03.528Z,15.10
2023-04-24T11:04:03.496Z,15.20
2023-04-24T11:05:03.589Z,15.20
2023-04-24T11:06:03.013Z,15.20
2023-04-24T11:07:02.637Z,15.20
2023-04-24T11:08:02.698Z,15.30
2023-04-24T11:09:03.197Z,15.30
2023-04-24T11:10:02.839Z,15.40
2023-04-24T11:11:02.769Z,15.40
2023-04-24T11:12:03.210Z,15.40
2023-04-24T11:13:02.631Z,15.40
2023-04-24T11:14:03.456Z,15.40
2023-04-24T11:15:03.830Z,15.40
2023-04-24T11:16:03.442Z,15.30
2023-04-24T11:17:02.776Z,15.30
2023-04-24T11:18:03.317Z,15.20
2023-04-24T11:19:03.302Z,15.20
2023-04-24T11:20:09.360Z,15.20
2023-04-24T11:21:03.432Z,15.20
2023-04-24T11:22:03.524Z,15.20
2023-04-24T11:23:03.104Z,15.20
2023-04-24T11:24:03.033Z,15.20
2023-04-24T11:25:03.383Z,15.20
2023-04-24T11:26:03.080Z,15.30
2023-04-24T11:27:03.508Z,15.30
2023-04-24T11:28:03.425Z,15.40
2023-04-24T11:29:02.823Z,15.50
2023-04-24T11:30:03.696Z,15.50
2023-04-24T11:31:02.792Z,15.50
2023-04-24T11:32:03.384Z,15.60
2023-04-24T11:33:03.025Z,15.60
2023-04-24T11:34:03.532Z,15.60
2023-04-24T11:35:02.922Z,15.70
2023-04-24T11:36:03.346Z,15.70
2023-04-24T11:37:02.764Z,15.70
2023-04-24T11:38:19.212Z,15.80
2023-04-24T11:39:02.786Z,15.80
2023-04-24T11:40:03.581Z,15.80
2023-04-24T11:41:03.149Z,15.80
2023-04-24T11:42:03.061Z,15.80
2023-04-24T11:43:03.551Z,15.80
2023-04-24T11:44:03.111Z,15.80
2023-04-24T11:45:03.288Z,15.80
2023-04-24T11:46:03.694Z,15.80
2023-04-24T11:47:03.047Z,15.80
2023-04-24T11:48:03.583Z,15.70
2023-04-24T11:49:03.604Z,15.60
2023-04-24T11:50:03.199Z,15.60
2023-04-24T11:51:03.374Z,15.50
2023-04-24T11:52:03.180Z,15.50
2023-04-24T11:53:03.018Z,15.50
2023-04-24T11:54:04.203Z,15.50
2023-04-24T11:55:02.993Z,15.40
2023-04-24T11:56:03.227Z,15.40
2023-04-24T11:57:03.145Z,15.40
2023-04-24T11:58:03.137Z,15.40
2023-04-24T11:59:02.733Z,15.40
2023-04-24T12:00:03.490Z,15.40
2023-04-24T12:01:03.561Z,15.40
2023-04-24T12:02:03.621Z,15.40
2023-04-24T12:03:03.408Z,15.40
2023-04-24T12:04:03.805Z,15.40
2023-04-24T12:05:02.980Z,15.40
2023-04-24T12:06:02.723Z,15.50
2023-04-24T12:07:03.392Z,15.50
2023-04-24T12:08:02.778Z,15.50
2023-04-24T12:09:08.129Z,15.60
2023-04-24T12:10:03.551Z,15.60
2023-04-24T12:11:03.260Z,15.60
2023-04-24T12:12:03.221Z,15.60
2023-04-24T12:13:03.120Z,15.60
2023-04-24T12:14:02.800Z,15.70
2023-04-24T12:15:02.906Z,15.60
2023-04-24T12:16:03.546Z,15.70
2023-04-24T12:17:03.144Z,15.60
2023-04-24T12:18:03.160Z,15.60
2023-04-24T12:19:02.601Z,15.60
2023-04-24T12:20:02.632Z,15.60
2023-04-24T12:21:03.291Z,15.60
2023-04-24T12:22:02.748Z,15.60
2023-04-24T12:23:03.160Z,15.50
2023-04-24T12:24:02.669Z,15.50
2023-04-24T12:25:02.694Z,15.50
2023-04-24T12:26:03.174Z,15.50
2023-04-24T12:27:03.067Z,15.50
2023-04-24T12:28:03.038Z,15.50
2023-04-24T12:29:03.591Z,15.50
2023-04-24T12:30:03.129Z,15.50
2023-04-24T12:31:03.144Z,15.50
2023-04-24T12:32:03.069Z,15.50
2023-04-24T12:33:02.708Z,15.50
2023-04-24T12:34:02.809Z,15.50
2023-04-24T12:35:03.443Z,15.50
2023-04-24T12:36:03.081Z,15.50
2023-04-24T12:37:02.916Z,15.50
2023-04-24T12:38:02.867Z,15.50
2023-04-24T12:39:02.657Z,15.50
2023-04-24T12:40:03.116Z,15.50
2023-04-24T12:41:03.057Z,15.50
2023-04-24T12:42:03.590Z,15.60
2023-04-24T12:43:03.092Z,15.50
2023-04-24T12:44:02.948Z,15.50
2023-04-24T12:45:03.329Z,15.50
2023-04-24T12:46:03.306Z,15.50
2023-04-24T12:47:02.731Z,15.50
2023-04-24T12:48:03.380Z,15.50
2023-04-24T12:49:03.295Z,15.50
2023-04-24T12:50:02.883Z,15.50
2023-04-24T12:51:03.414Z,15.50
2023-04-24T12:52:03.497Z,15.60
2023-04-24T12:53:03.482Z,15.60
2023-04-24T12:54:03.429Z,15.60